createdAt,value
2023-04-17T00:02:03.180Z,5.32
2023-04-17T00:04:31.392Z,5.82
2023-04-17T00:06:59.549Z,5.32
2023-04-17T00:09:26.980Z,5.20
2023-04-17T00:11:54.232Z,5.60
2023-04-17T00:14:22.059Z,5.35
2023-04-17T00:16:49.315Z,5.60
2023-04-17T00:19:16.780Z,5.88
2023-04-17T00:21:44.026Z,5.78
2023-04-17T00:24:13.184Z,6.20
2023-04-17T00:26:40.730Z,6.20
2023-04-17T00:29:08.002Z,5.35
2023-04-17T00:31:35.380Z,5.85
2023-04-17T00:34:02.704Z,6.60
2023-04-17T00:36:33.150Z,5.82
2023-04-17T00:39:00.698Z,6.88
2023-04-17T00:41:28.046Z,6.00
2023-04-17T00:43:55.354Z,5.60
2023-04-17T00:46:22.619Z,5.78
2023-04-17T00:48:50.184Z,6.03
2023-04-17T00:51:17.599Z,5.45
2023-04-17T00:53:45.631Z,5.75
2023-04-17T00:56:13.451Z,5.50
2023-04-17T00:58:41.057Z,5.93
2023-04-17T01:01:09.000Z,6.25
2023-04-17T01:03:36.380Z,6.03
2023-04-17T01:06:03.846Z,5.65
2023-04-17T01:08:42.391Z,6.20
2023-04-17T01:11:10.898Z,5.97
2023-04-17T01:13:46.154Z,6.65
2023-04-17T01:16:13.734Z,6.00
2023-04-17T01:18:41.272Z,6.85
2023-04-17T01:21:08.585Z,7.22
2023-04-17T01:23:46.426Z,6.93
2023-04-17T01:26:18.939Z,6.68
2023-04-17T01:28:54.434Z,6.00
2023-04-17T01:31:23.106Z,6.80
2023-04-17T01:33:51.454Z,6.38
2023-04-17T01:36:19.498Z,7.22
2023-04-17T01:38:46.842Z,6.63
2023-04-17T01:41:14.149Z,8.27
2023-04-17T01:43:43.947Z,6.65
2023-04-17T01:46:12.190Z,6.97
2023-04-17T01:48:39.834Z,7.22
2023-04-17T01:51:07.143Z,6.75
2023-04-17T01:53:34.796Z,7.13
2023-04-17T01:56:02.219Z,7.13
2023-04-17T01:58:31.187Z,7.18
2023-04-17T02:00:59.297Z,7.40
2023-04-17T02:03:27.137Z,7.00
2023-04-17T02:05:54.631Z,6.40
2023-04-17T02:08:22.009Z,6.97
2023-04-17T02:10:49.322Z,6.97
2023-04-17T02:13:16.816Z,7.60
2023-04-17T02:15:44.183Z,7.38
2023-04-17T02:18:11.773Z,6.72
2023-04-17T02:20:39.104Z,7.10
2023-04-17T02:23:07.034Z,7.18
2023-04-17T02:25:34.804Z,7.10
2023-04-17T02:28:03.876Z,7.50
2023-04-17T02:30:31.180Z,7.30
2023-04-17T02:32:59.240Z,7.05
2023-04-17T02:35:28.322Z,7.50
2023-04-17T02:37:57.231Z,7.47
2023-04-17T02:40:24.899Z,7.20
2023-04-17T02:42:58.893Z,6.90
2023-04-17T02:45:26.250Z,7.15
2023-04-17T02:47:54.257Z,7.07
2023-04-17T02:50:21.707Z,7.30
2023-04-17T02:53:02.283Z,6.70
2023-04-17T02:55:29.545Z,7.22
2023-04-17T02:57:56.793Z,7.75
2023-04-17T03:00:24.410Z,6.80
2023-04-17T03:02:52.596Z,6.70
2023-04-17T03:05:23.508Z,7.43
2023-04-17T03:07:52.878Z,7.55
2023-04-17T03:10:20.212Z,7.05
2023-04-17T03:12:47.622Z,7.55
2023-04-17T03:15:14.933Z,8.00
2023-04-17T03:17:42.763Z,7.53
2023-04-17T03:20:10.353Z,7.25
2023-04-17T03:22:37.782Z,7.07
2023-04-17T03:25:07.111Z,7.35
2023-04-17T03:27:47.666Z,7.45
2023-04-17T03:30:16.549Z,7.47
2023-04-17T03:32:48.177Z,7.25
2023-04-17T03:35:15.745Z,7.80
2023-04-17T03:37:43.452Z,7.10
2023-04-17T03:40:12.713Z,7.10
2023-04-17T03:42:39.942Z,7.88
2023-04-17T03:45:07.986Z,8.27
2023-04-17T03:47:35.310Z,7.43
2023-04-17T03:50:02.868Z,7.97
2023-04-17T03:52:35.693Z,7.80
2023-04-17T03:55:04.837Z,8.02
2023-04-17T03:57:32.145Z,7.22
2023-04-17T03:59:59.620Z,7.68
2023-04-17T04:02:32.049Z,7.32
2023-04-17T04:04:59.787Z,7.05
2023-04-17T04:07:27.042Z,7.57
2023-04-17T04:09:54.556Z,6.80
2023-04-17T04:12:23.243Z,7.63
2023-04-17T04:14:50.497Z,7.38
2023-04-17T04:17:18.169Z,6.93
2023-04-17T04:19:46.548Z,7.20
2023-04-17T04:22:13.971Z,6.90
2023-04-17T04:24:47.576Z,6.47
2023-04-17T04:27:18.764Z,6.47
2023-04-17T04:29:49.753Z,7.07
2023-04-17T04:32:20.143Z,7.22
2023-04-17T04:34:48.044Z,6.90
2023-04-17T04:37:16.000Z,6.57
2023-04-17T04:39:47.421Z,6.80
2023-04-17T04:42:22.076Z,7.15
2023-04-17T04:44:57.625Z,7.10
2023-04-17T04:47:28.721Z,8.02
2023-04-17T04:49:56.121Z,6.30
2023-04-17T04:52:23.865Z,7.30
2023-04-17T04:54:54.774Z,7.07
2023-04-17T04:57:22.274Z,6.47
2023-04-17T04:59:53.155Z,7.28
2023-04-17T05:02:29.290Z,8.75
2023-04-17T05:04:57.599Z,7.45
2023-04-17T05:07:26.082Z,7.25
2023-04-17T05:09:54.057Z,7.80
2023-04-17T05:12:21.614Z,6.82
2023-04-17T05:14:49.546Z,6.70
2023-04-17T05:17:19.337Z,7.53
2023-04-17T05:19:46.816Z,6.82
2023-04-17T05:22:14.691Z,7.10
2023-04-17T05:24:58.066Z,7.28
2023-04-17T05:27:27.367Z,7.15
2023-04-17T05:29:55.663Z,9.48
2023-04-17T05:32:23.271Z,7.18
2023-04-17T05:34:54.851Z,6.95
2023-04-17T05:37:25.983Z,6.73
2023-04-17T05:39:53.262Z,7.15
2023-04-17T05:42:20.480Z,7.53
2023-04-17T05:44:47.932Z,7.00
2023-04-17T05:47:15.226Z,7.50
2023-04-17T05:49:43.994Z,6.82
2023-04-17T05:52:11.526Z,7.57
2023-04-17T05:57:10.472Z,7.03
2023-04-17T05:59:38.350Z,6.70
2023-04-17T06:02:07.871Z,6.40
2023-04-17T06:04:35.575Z,7.28
2023-04-17T06:07:06.178Z,6.80
2023-04-17T06:09:34.553Z,7.30
2023-04-17T06:12:01.795Z,7.07
2023-04-17T06:14:29.105Z,6.90
2023-04-17T06:16:56.617Z,7.07
2023-04-17T06:19:24.317Z,6.85
2023-04-17T06:21:51.762Z,6.53
2023-04-17T06:24:20.015Z,6.97
2023-04-17T06:26:48.403Z,7.28
2023-04-17T06:29:16.119Z,7.03
2023-04-17T06:31:44.718Z,7.28
2023-04-17T06:34:12.874Z,6.47
2023-04-17T06:36:43.400Z,6.28
2023-04-17T06:39:10.978Z,6.68
2023-04-17T06:41:38.421Z,7.22
2023-04-17T06:44:05.916Z,7.25
2023-04-17T06:46:47.391Z,7.30
2023-04-17T06:49:15.077Z,6.88
2023-04-17T06:51:46.010Z,6.97
2023-04-17T06:54:14.174Z,6.00
2023-04-17T06:56:41.495Z,7.30
2023-04-17T06:59:09.239Z,10.30
2023-04-17T07:01:38.284Z,7.20
2023-04-17T07:04:06.131Z,6.65
2023-04-17T07:06:34.619Z,6.75
2023-04-17T07:09:02.036Z,6.85
2023-04-17T07:11:29.562Z,7.13
2023-04-17T07:13:56.888Z,6.65
2023-04-17T07:16:24.346Z,6.35
2023-04-17T07:18:52.459Z,7.25
2023-04-17T07:21:19.686Z,8.93
2023-04-17T07:23:47.280Z,7.78
2023-04-17T07:26:14.512Z,7.30
2023-04-17T07:28:41.900Z,6.85
2023-04-17T07:31:09.494Z,7.55
2023-04-17T07:33:40.025Z,7.35
2023-04-17T07:36:10.520Z,6.90
2023-04-17T07:38:40.309Z,6.45
2023-04-17T07:41:08.322Z,6.95
2023-04-17T07:43:35.817Z,6.28
2023-04-17T07:46:03.128Z,6.95
2023-04-17T07:48:30.324Z,6.35
2023-04-17T07:51:01.509Z,8.00
2023-04-17T07:53:29.240Z,6.05
2023-04-17T07:55:56.679Z,7.53
2023-04-17T07:58:24.213Z,6.22
2023-04-17T08:00:52.161Z,7.18
2023-04-17T08:03:22.504Z,7.30
2023-04-17T08:05:52.191Z,7.60
2023-04-17T08:08:20.138Z,6.00
2023-04-17T08:10:47.461Z,6.43
2023-04-17T08:13:14.933Z,6.32
2023-04-17T08:15:42.448Z,9.15
2023-04-17T08:18:10.283Z,7.00
2023-04-17T08:20:37.683Z,7.32
2023-04-17T08:23:06.145Z,5.90
2023-04-17T08:25:33.533Z,5.88
2023-04-17T08:28:00.825Z,6.53
2023-04-17T08:30:28.154Z,5.55
2023-04-17T08:32:57.667Z,4.68
2023-04-17T08:35:26.674Z,5.20
2023-04-17T08:37:56.128Z,5.68
2023-04-17T08:40:25.092Z,5.68
2023-04-17T08:42:54.218Z,6.13
2023-04-17T08:45:24.387Z,5.90
2023-04-17T08:47:51.809Z,5.63
2023-04-17T08:50:21.901Z,4.97
2023-04-17T08:52:52.063Z,6.18
2023-04-17T08:55:23.770Z,5.28
2023-04-17T08:57:58.742Z,5.78
2023-04-17T09:00:31.467Z,5.20
2023-04-17T09:03:00.092Z,5.60
2023-04-17T09:05:36.865Z,6.55
2023-04-17T09:08:20.765Z,4.65
2023-04-17T09:10:53.680Z,4.88
2023-04-17T09:13:29.527Z,6.50
2023-04-17T09:16:08.535Z,5.80
2023-04-17T09:18:37.448Z,9.13
2023-04-17T09:21:06.152Z,5.25
2023-04-17T09:23:50.705Z,5.60
2023-04-17T09:26:24.843Z,5.88
2023-04-17T09:29:11.307Z,4.75
2023-04-17T09:31:42.548Z,3.85
2023-04-17T09:34:14.479Z,4.10
2023-04-17T09:39:24.054Z,5.47
2023-04-17T09:42:03.291Z,4.23
2023-04-17T09:44:31.291Z,5.25
2023-04-17T09:47:00.440Z,4.43
2023-04-17T09:49:40.568Z,4.10
2023-04-17T09:52:07.923Z,3.85
2023-04-17T09:54:38.332Z,3.97
2023-04-17T09:57:10.098Z,4.70
2023-04-17T09:59:41.924Z,4.30
2023-04-17T10:02:11.698Z,3.80
2023-04-17T10:04:46.724Z,4.30
2023-04-17T10:07:14.598Z,4.78
2023-04-17T10:09:43.218Z,3.67
2023-04-17T10:12:16.878Z,3.65
2023-04-17T10:14:48.387Z,3.55
2023-04-17T10:17:34.280Z,3.70
2023-04-17T10:20:23.672Z,4.00
2023-04-17T10:22:56.042Z,4.20
2023-04-17T10:25:31.002Z,5.07
2023-04-17T10:28:00.908Z,3.63
2023-04-17T10:30:54.827Z,3.80
2023-04-17T10:33:24.907Z,4.60
2023-04-17T10:35:53.634Z,4.50
2023-04-17T10:38:34.812Z,4.50
2023-04-17T10:41:09.480Z,5.00
2023-04-17T10:43:41.753Z,3.88
2023-04-17T10:46:12.677Z,4.40
2023-04-17T10:48:50.750Z,4.10
2023-04-17T10:51:23.913Z,3.95
2023-04-17T10:53:55.885Z,4.20
2023-04-17T10:59:00.951Z,3.90
2023-04-17T11:01:48.000Z,3.22
2023-04-17T11:04:27.076Z,4.10
2023-04-17T11:06:55.794Z,4.38
2023-04-17T11:09:26.728Z,3.70
2023-04-17T11:11:54.731Z,4.00
2023-04-17T11:14:23.521Z,4.63
2023-04-17T11:16:51.987Z,3.92
2023-04-17T11:19:21.620Z,4.20
2023-04-17T11:21:53.826Z,4.00
2023-04-17T11:24:24.238Z,4.03
2023-04-17T11:26:51.658Z,3.78
2023-04-17T11:29:20.596Z,4.03
2023-04-17T11:31:53.011Z,3.88
2023-04-17T11:34:21.033Z,3.88
2023-04-17T11:36:54.746Z,3.65
2023-04-17T11:39:24.100Z,3.75
2023-04-17T11:41:52.181Z,3.72
2023-04-17T11:44:21.164Z,3.80
2023-04-17T11:46:52.820Z,3.72
2023-04-17T11:49:33.201Z,3.67
2023-04-17T11:52:01.897Z,3.90
2023-04-17T11:54:36.419Z,4.03
2023-04-17T11:57:11.023Z,4.10
2023-04-17T11:59:39.616Z,3.95
2023-04-17T12:02:08.436Z,3.85
2023-04-17T12:04:37.388Z,3.88
2023-04-17T12:07:06.828Z,3.60
2023-04-17T12:09:35.639Z,3.42
2023-04-17T12:12:07.641Z,3.60
2023-04-17T12:14:35.437Z,3.88
2023-04-17T12:17:02.746Z,3.50
2023-04-17T12:19:31.939Z,4.57
2023-04-17T12:21:59.759Z,3.65
2023-04-17T12:24:27.291Z,3.05
2023-04-17T12:26:54.842Z,3.10
2023-04-17T12:29:36.093Z,3.20
2023-04-17T12:32:04.162Z,3.00
2023-04-17T12:34:31.710Z,3.47
2023-04-17T12:36:59.131Z,3.10
2023-04-17T12:39:26.331Z,3.20
2023-04-17T12:41:53.563Z,3.30
2023-04-17T12:44:20.812Z,3.80
2023-04-17T12:46:48.032Z,4.22
2023-04-17T12:49:15.821Z,3.97
2023-04-17T12:51:43.038Z,3.33
2023-04-17T12:56:37.615Z,3.80
2023-04-17T12:59:05.385Z,3.63
2023-04-17T13:01:32.722Z,3.42
2023-04-17T13:04:00.252Z,3.70
2023-04-17T13:06:28.448Z,3.60
2023-04-17T13:08:55.778Z,3.42
2023-04-17T13:11:23.032Z,3.70
2023-04-17T13:13:50.341Z,3.50
2023-04-17T13:16:17.632Z,4.00
2023-04-17T13:18:44.891Z,3.33
2023-04-17T13:21:12.374Z,3.50
2023-04-17T13:23:39.666Z,4.13
2023-04-17T13:26:06.880Z,3.72
2023-04-17T13:28:34.128Z,3.88
2023-04-17T13:31:01.478Z,3.85
2023-04-17T13:33:28.832Z,4.22
2023-04-17T13:35:56.275Z,3.80
2023-04-17T13:38:23.496Z,4.20
2023-04-17T13:40:50.786Z,3.70
2023-04-17T13:43:18.089Z,4.07
2023-04-17T13:45:45.369Z,3.50
2023-04-17T13:48:12.863Z,3.53
2023-04-17T13:50:40.126Z,3.40
2023-04-17T13:53:08.994Z,3.90
2023-04-17T13:55:37.952Z,3.63
2023-04-17T13:58:05.150Z,4.50
2023-04-17T14:00:32.354Z,4.20
2023-04-17T14:03:00.854Z,3.40
2023-04-17T14:05:28.311Z,3.90
2023-04-17T14:07:55.536Z,3.70
2023-04-17T14:10:22.760Z,3.60
2023-04-17T14:12:50.018Z,4.40
2023-04-17T14:15:17.358Z,4.00
2023-04-17T14:17:45.211Z,4.25
2023-04-17T14:20:14.937Z,3.63
2023-04-17T14:22:42.553Z,4.00
2023-04-17T14:25:09.964Z,3.67
2023-04-17T14:27:37.231Z,4.00
2023-04-17T14:30:05.181Z,3.60
2023-04-17T14:32:32.608Z,3.60
2023-04-17T14:34:59.978Z,3.90
2023-04-17T14:37:28.298Z,4.40
2023-04-17T14:39:55.756Z,4.30
2023-04-17T14:42:23.108Z,6.88
2023-04-17T14:44:50.342Z,4.70
2023-04-17T14:47:17.601Z,4.28
2023-04-17T14:49:44.816Z,3.95
2023-04-17T14:52:12.096Z,4.88
2023-04-17T14:54:39.360Z,4.70
2023-04-17T14:57:06.611Z,4.60
2023-04-17T14:59:34.011Z,4.22
2023-04-17T15:02:01.779Z,4.40
2023-04-17T15:04:29.026Z,4.57
2023-04-17T15:06:56.372Z,4.85
2023-04-17T15:09:23.703Z,4.60
2023-04-17T15:11:50.974Z,4.28
2023-04-17T15:14:18.238Z,4.50
2023-04-17T15:16:45.541Z,4.60
2023-04-17T15:19:13.230Z,4.68
2023-04-17T15:21:40.661Z,4.50
2023-04-17T15:24:07.922Z,4.93
2023-04-17T15:26:35.688Z,4.60
2023-04-17T15:32:33.498Z,4.32
2023-04-17T15:35:00.845Z,4.20
2023-04-17T15:37:28.853Z,4.60
2023-04-17T15:39:56.285Z,4.65
2023-04-17T15:43:10.819Z,4.72
2023-04-17T15:45:38.343Z,5.15
2023-04-17T15:48:05.820Z,4.50
2023-04-17T15:50:34.189Z,4.68
2023-04-17T15:53:01.536Z,4.97
2023-04-17T15:55:29.025Z,5.20
2023-04-17T15:57:56.520Z,5.22
2023-04-17T16:00:23.799Z,4.45
2023-04-17T16:02:52.145Z,4.60
2023-04-17T16:05:20.113Z,4.82
2023-04-17T16:07:48.474Z,8.25
2023-04-17T16:17:18.320Z,5.30
2023-04-17T16:19:47.200Z,5.65
2023-04-17T16:22:15.964Z,5.63
2023-04-17T16:24:43.569Z,5.38
2023-04-17T16:27:12.974Z,5.35
2023-04-17T16:29:40.677Z,5.68
2023-04-17T16:32:07.959Z,6.00
2023-04-17T16:34:35.380Z,5.88
2023-04-17T16:37:03.487Z,6.35
2023-04-17T16:39:30.833Z,6.03
2023-04-17T16:41:58.460Z,6.53
2023-04-17T16:44:27.917Z,7.18
2023-04-17T16:47:11.868Z,7.32
2023-04-17T16:49:41.829Z,6.90
2023-04-17T16:52:09.830Z,7.57
2023-04-17T16:54:37.702Z,7.13
2023-04-17T16:57:06.269Z,7.28
2023-04-17T16:59:34.029Z,6.82
2023-04-17T17:02:02.421Z,7.70
2023-04-17T17:04:30.683Z,7.25
2023-04-17T17:06:58.034Z,7.47
2023-04-17T17:09:26.538Z,7.90
2023-04-17T17:11:54.689Z,8.15
2023-04-17T17:14:22.299Z,7.60
2023-04-17T17:16:51.108Z,8.43
2023-04-17T17:19:20.364Z,7.90
2023-04-17T17:21:48.190Z,8.10
2023-04-17T17:24:15.808Z,7.55
2023-04-17T17:26:43.374Z,8.35
2023-04-17T17:29:10.838Z,7.78
2023-04-17T17:31:38.801Z,8.00
2023-04-17T17:34:24.601Z,8.20
2023-04-17T17:36:53.303Z,7.53
2023-04-17T17:39:22.301Z,8.07
2023-04-17T17:41:50.134Z,8.43
2023-04-17T17:44:17.846Z,7.60
2023-04-17T17:46:45.626Z,7.07
2023-04-17T17:49:13.296Z,8.10
2023-04-17T17:51:42.005Z,7.32
2023-04-17T17:54:09.469Z,7.93
2023-04-17T17:56:36.795Z,7.45
2023-04-17T17:59:04.075Z,7.57
2023-04-17T18:01:31.353Z,8.13
2023-04-17T18:03:59.094Z,7.80
2023-04-17T18:06:28.135Z,7.72
2023-04-17T18:08:55.743Z,7.75
2023-04-17T18:11:23.129Z,9.32
2023-04-17T18:13:50.731Z,8.50
2023-04-17T18:16:18.397Z,8.60
2023-04-17T18:18:46.746Z,9.05
2023-04-17T18:21:14.268Z,8.43
2023-04-17T18:23:41.496Z,9.25
2023-04-17T18:26:08.704Z,8.32
2023-04-17T18:28:35.971Z,8.10
2023-04-17T18:31:03.339Z,8.90
2023-04-17T18:33:30.966Z,7.78
2023-04-17T18:35:58.211Z,8.50
2023-04-17T18:38:25.598Z,8.48
2023-04-17T18:40:57.532Z,8.38
2023-04-17T18:43:25.369Z,8.10
2023-04-17T18:45:52.543Z,8.32
2023-04-17T18:48:20.087Z,7.43
2023-04-17T18:50:47.631Z,8.07
2023-04-17T18:53:14.854Z,8.93
2023-04-17T18:55:42.131Z,8.82
2023-04-17T18:58:09.312Z,8.95
2023-04-17T19:00:37.680Z,8.32
2023-04-17T19:03:05.301Z,8.55
2023-04-17T19:05:32.565Z,8.27
2023-04-17T19:07:59.879Z,7.28
2023-04-17T19:10:27.096Z,6.97
2023-04-17T19:12:54.305Z,7.95
2023-04-17T19:15:21.701Z,8.02
2023-04-17T19:17:48.923Z,7.28
2023-04-17T19:20:16.892Z,7.05
2023-04-17T19:22:44.320Z,7.80
2023-04-17T19:25:11.654Z,7.93
2023-04-17T19:27:38.953Z,7.55
2023-04-17T19:30:08.339Z,7.32
2023-04-17T19:32:35.712Z,7.78
2023-04-17T19:35:02.936Z,8.20
2023-04-17T19:37:30.329Z,7.72
2023-04-17T19:39:57.584Z,7.05
2023-04-17T19:42:24.892Z,10.38
2023-04-17T19:44:52.175Z,10.02
2023-04-17T19:47:19.376Z,8.45
2023-04-17T19:49:46.598Z,7.60
2023-04-17T19:52:13.886Z,8.13
2023-04-17T19:54:43.749Z,7.82
2023-04-17T19:57:11.325Z,7.57
2023-04-17T19:59:38.529Z,7.78
2023-04-17T20:02:05.849Z,8.73
2023-04-17T20:04:33.273Z,8.00
2023-04-17T20:07:00.811Z,8.00
2023-04-17T20:09:28.086Z,8.18
2023-04-17T20:11:55.313Z,8.50
2023-04-17T20:14:22.565Z,8.35
2023-04-17T20:16:50.271Z,8.40
2023-04-17T20:19:17.582Z,8.00
2023-04-17T20:21:46.905Z,8.65
2023-04-17T20:24:15.862Z,8.55
2023-04-17T20:26:46.619Z,8.38
2023-04-17T20:29:14.090Z,8.35
2023-04-17T20:31:41.722Z,7.85
2023-04-17T20:34:09.001Z,8.82
2023-04-17T20:36:36.253Z,8.20
2023-04-17T20:39:03.889Z,8.02
2023-04-17T20:41:31.091Z,7.85
2023-04-17T20:44:02.035Z,10.70
2023-04-17T20:46:29.971Z,9.48
2023-04-17T20:48:57.308Z,8.88
2023-04-17T20:51:26.440Z,9.20
2023-04-17T20:53:54.834Z,9.35
2023-04-17T20:56:23.104Z,8.45
2023-04-17T20:58:50.462Z,9.93
2023-04-17T21:01:17.868Z,9.07
2023-04-17T21:03:45.237Z,9.38
2023-04-17T21:06:12.606Z,9.10
2023-04-17T21:08:39.862Z,11.07
2023-04-17T21:11:07.133Z,9.30
2023-04-17T21:13:34.909Z,10.55
2023-04-17T21:16:02.203Z,10.35
2023-04-17T21:18:29.742Z,11.25
2023-04-17T21:20:57.056Z,10.73
2023-04-17T21:23:24.258Z,10.05
2023-04-17T21:25:55.010Z,9.90
2023-04-17T21:28:22.377Z,10.02
2023-04-17T21:30:49.579Z,8.55
2023-04-17T21:33:16.897Z,10.38
2023-04-17T21:35:44.112Z,10.70
2023-04-17T21:38:11.357Z,11.10
2023-04-17T21:40:48.270Z,11.07
2023-04-17T21:43:18.170Z,10.25
2023-04-17T21:45:45.984Z,10.45
2023-04-17T21:48:15.498Z,10.95
2023-04-17T21:50:43.535Z,10.10
2023-04-17T21:53:11.296Z,10.38
2023-04-17T21:55:38.817Z,12.23
2023-04-17T21:58:06.082Z,11.80
2023-04-17T22:00:33.587Z,13.57
2023-04-17T22:03:19.080Z,13.77
2023-04-17T22:05:46.524Z,13.35
2023-04-17T22:08:13.743Z,12.57
2023-04-17T22:10:40.954Z,11.93
2023-04-17T22:13:08.146Z,14.95
2023-04-17T22:15:35.361Z,13.90
2023-04-17T22:18:02.675Z,15.43
2023-04-17T22:20:29.933Z,13.48
2023-04-17T22:22:57.156Z,15.02
2023-04-17T22:25:24.488Z,15.27
2023-04-17T22:27:51.753Z,12.50
2023-04-17T22:30:19.003Z,12.07
2023-04-17T22:32:46.285Z,12.48
2023-04-17T22:35:14.207Z,13.00
2023-04-17T22:37:41.490Z,12.90
2023-04-17T22:40:09.383Z,13.55
2023-04-17T22:42:36.607Z,13.77
2023-04-17T22:45:04.116Z,12.85
2023-04-17T22:47:31.397Z,11.85
2023-04-17T22:49:59.272Z,12.35
2023-04-17T22:52:26.436Z,11.82
2023-04-17T22:54:54.305Z,12.00
2023-04-17T22:57:21.537Z,13.00
2023-04-17T22:59:48.829Z,12.60
2023-04-17T23:02:16.240Z,10.38
2023-04-17T23:04:43.473Z,11.02
2023-04-17T23:07:10.675Z,11.10
2023-04-17T23:09:37.872Z,11.10
2023-04-17T23:12:07.181Z,10.93
2023-04-17T23:14:34.393Z,10.20
2023-04-17T23:17:01.667Z,10.70
2023-04-17T23:19:28.886Z,10.88
2023-04-17T23:21:56.272Z,10.77
2023-04-17T23:24:23.521Z,10.55
2023-04-17T23:26:50.728Z,10.25
2023-04-17T23:29:17.933Z,11.93
2023-04-17T23:31:45.703Z,12.18
2023-04-17T23:34:13.231Z,11.15
2023-04-17T23:36:40.814Z,10.93
2023-04-17T23:39:08.024Z,10.52
2023-04-17T23:41:35.485Z,10.75
2023-04-17T23:44:04.054Z,11.55
2023-04-17T23:46:31.325Z,11.68
2023-04-17T23:48:58.625Z,10.00
2023-04-17T23:51:27.698Z,11.52
2023-04-17T23:53:54.971Z,10.77
2023-04-17T23:56:22.733Z,10.68
2023-04-17T23:58:49.964Z,10.48
